Time;durP1;ratioP1;P1;durP2;ratioP2;P2;SDS_P1;SDS_P2;PMS_P1;PMS_P2;Temp;Humidity;BMP_temperature;BMP_pressure;BME280_temperature;BME280_humidity;BME280_pressure;Samples;Min_cycle;Max_cycle;Signal;HPM_P1;HPM_P2
2023/07/26 00:01:49;;;;;;;4.87;2.30;;;22.90;82.50;;;;;;5072189;28;20683;-63
2023/07/26 00:04:16;;;;;;;8.43;2.10;;;22.80;82.30;;;;;;5076363;28;20198;-63
2023/07/26 00:06:43;;;;;;;4.03;2.57;;;22.80;82.30;;;;;;5079466;28;20193;-63
2023/07/26 00:09:10;;;;;;;3.17;2.23;;;22.70;82.10;;;;;;5068779;28;20213;-65
2023/07/26 00:11:37;;;;;;;4.10;1.93;;;22.70;82.20;;;;;;5071730;28;20197;-63
2023/07/26 00:14:05;;;;;;;2.47;1.87;;;22.60;82.10;;;;;;5081500;28;20674;-63
2023/07/26 00:16:33;;;;;;;4.30;2.50;;;22.60;82.30;;;;;;5081101;28;20209;-63
2023/07/26 00:19:01;;;;;;;6.90;2.70;;;22.50;83.10;;;;;;5077670;28;20202;-64
2023/07/26 00:21:28;;;;;;;4.83;2.80;;;22.50;82.70;;;;;;5076601;28;20660;-63
2023/07/26 00:23:55;;;;;;;5.90;2.70;;;22.50;83.00;;;;;;5074437;28;20260;-63
2023/07/26 00:26:22;;;;;;;3.70;2.63;;;22.50;83.20;;;;;;5074417;28;20446;-63
2023/07/26 00:28:49;;;;;;;5.50;2.50;;;22.50;83.40;;;;;;5069577;28;20509;-63
2023/07/26 00:31:17;;;;;;;6.50;2.73;;;22.50;83.50;;;;;;5074731;28;20194;-64
2023/07/26 00:33:45;;;;;;;2.63;2.00;;;22.50;83.70;;;;;;5082488;28;20197;-63
2023/07/26 00:36:12;;;;;;;4.10;2.10;;;22.50;83.80;;;;;;5081504;28;20662;-64
2023/07/26 00:38:39;;;;;;;5.23;2.20;;;22.50;84.10;;;;;;5077495;28;20198;-63
2023/07/26 00:41:06;;;;;;;3.17;2.00;;;22.40;84.20;;;;;;5074680;28;20202;-65
2023/07/26 00:43:34;;;;;;;4.10;1.87;;;22.40;84.40;;;;;;5078871;28;20532;-64
2023/07/26 00:46:02;;;;;;;3.00;1.80;;;22.40;84.60;;;;;;5076655;28;20233;-63
2023/07/26 00:48:30;;;;;;;6.90;2.30;;;22.40;85.50;;;;;;5070005;28;20594;-63
2023/07/26 00:50:58;;;;;;;4.53;1.67;;;22.40;84.90;;;;;;5068110;28;20643;-65
2023/07/26 00:53:26;;;;;;;4.43;2.27;;;22.50;85.00;;;;;;5077323;28;20534;-63
2023/07/26 00:55:53;;;;;;;14.43;2.43;;;22.50;85.30;;;;;;5083406;28;20214;-63
2023/07/26 00:58:21;;;;;;;5.07;2.10;;;22.50;85.50;;;;;;5070434;28;20202;-64
2023/07/26 01:00:48;;;;;;;7.87;2.50;;;22.50;85.80;;;;;;5075164;28;20205;-64
2023/07/26 01:03:15;;;;;;;6.70;2.57;;;22.50;85.90;;;;;;5077298;28;20533;-64
2023/07/26 01:06:03;;;;;;;5.33;2.00;;;22.50;85.90;;;;;;5074024;28;20219;-64
2023/07/26 01:08:54;;;;;;;6.80;2.40;;;22.40;86.10;;;;;;5066946;28;20217;-64
2023/07/26 01:11:35;;;;;;;2.67;2.00;;;22.40;86.90;;;;;;5074663;28;20193;-64
2023/07/26 01:14:15;;;;;;;5.83;2.53;;;22.30;87.60;;;;;;5074540;28;20197;-65
2023/07/26 01:16:43;;;;;;;5.53;2.80;;;22.30;88.70;;;;;;5076395;28;20639;-64
2023/07/26 01:19:10;;;;;;;7.97;2.60;;;22.40;89.20;;;;;;5070447;28;20195;-65
2023/07/26 01:21:37;;;;;;;7.47;2.50;;;22.40;89.70;;;;;;5076722;28;20201;-64
2023/07/26 01:24:06;;;;;;;3.07;2.33;;;22.40;90.00;;;;;;5072304;28;20218;-65
2023/07/26 01:26:33;;;;;;;3.77;2.20;;;22.40;90.20;;;;;;5068569;28;20325;-64
2023/07/26 01:29:00;;;;;;;3.60;2.47;;;22.40;90.30;;;;;;5076478;28;20197;-64
2023/07/26 01:31:27;;;;;;;5.10;2.80;;;22.40;90.40;;;;;;5079069;28;20516;-65
2023/07/26 01:33:56;;;;;;;4.50;2.20;;;22.40;90.50;;;;;;5073604;28;20580;-64
2023/07/26 01:36:24;;;;;;;3.70;2.43;;;22.40;90.50;;;;;;5074065;28;20204;-64
2023/07/26 01:38:53;;;;;;;4.37;2.90;;;22.40;90.50;;;;;;5069445;28;20520;-64
2023/07/26 01:41:21;;;;;;;5.23;2.33;;;22.40;90.60;;;;;;5073484;28;20521;-64
2023/07/26 01:43:49;;;;;;;5.93;2.60;;;22.40;90.70;;;;;;5073125;28;20214;-64
2023/07/26 01:46:15;;;;;;;5.40;2.47;;;22.40;90.80;;;;;;5069889;28;20194;-68
2023/07/26 01:48:43;;;;;;;5.63;1.90;;;22.30;90.90;;;;;;5080036;28;20646;-66
2023/07/26 01:51:10;;;;;;;3.40;2.00;;;22.30;90.90;;;;;;5076479;28;20221;-64
2023/07/26 01:53:37;;;;;;;4.87;2.53;;;22.30;91.10;;;;;;5080625;28;20204;-64
2023/07/26 01:56:04;;;;;;;2.93;2.13;;;22.30;91.20;;;;;;5076356;28;20539;-63
2023/07/26 01:58:32;;;;;;;4.80;2.67;;;22.30;91.10;;;;;;5071625;28;20210;-64
2023/07/26 02:01:00;;;;;;;4.90;2.60;;;22.30;91.10;;;;;;5078067;28;20201;-64
2023/07/26 02:03:27;;;;;;;4.20;2.50;;;22.30;91.00;;;;;;5071946;28;20319;-65
2023/07/26 02:05:54;;;;;;;4.40;2.50;;;22.30;90.90;;;;;;5070232;28;20228;-65
2023/07/26 02:08:21;;;;;;;6.40;2.13;;;22.30;90.90;;;;;;5071038;28;20195;-64
2023/07/26 02:10:48;;;;;;;6.10;2.30;;;22.30;90.80;;;;;;5075480;28;20235;-64
2023/07/26 02:13:15;;;;;;;4.40;2.57;;;22.30;90.70;;;;;;5076051;28;20209;-64
2023/07/26 02:15:44;;;;;;;4.50;2.40;;;22.30;90.70;;;;;;5073191;28;20596;-65
2023/07/26 02:18:11;;;;;;;2.33;1.83;;;22.20;90.70;;;;;;5070175;28;20195;-65
2023/07/26 02:20:38;;;;;;;3.17;2.20;;;22.10;90.70;;;;;;5069298;28;20695;-65
2023/07/26 02:23:06;;;;;;;5.00;2.60;;;22.10;90.90;;;;;;5073014;28;20222;-66
2023/07/26 02:25:34;;;;;;;3.10;2.43;;;22.00;90.90;;;;;;5074315;28;20202;-65
2023/07/26 02:28:01;;;;;;;3.73;2.60;;;21.90;91.00;;;;;;5073429;28;20201;-64
2023/07/26 02:30:28;;;;;;;5.00;2.90;;;21.90;91.20;;;;;;5076980;28;20295;-66
2023/07/26 02:32:55;;;;;;;3.90;2.50;;;21.80;91.20;;;;;;5088348;28;20238;-64
2023/07/26 02:35:22;;;;;;;6.00;3.07;;;21.80;91.10;;;;;;5078503;28;20540;-64
2023/07/26 02:37:49;;;;;;;5.00;2.77;;;21.70;91.10;;;;;;5072493;28;20292;-64
2023/07/26 02:40:17;;;;;;;2.70;2.50;;;21.60;91.30;;;;;;5073240;28;20708;-65
2023/07/26 02:42:44;;;;;;;8.00;2.70;;;21.50;91.50;;;;;;5071900;28;20215;-64
2023/07/26 02:45:11;;;;;;;4.10;2.53;;;21.50;91.70;;;;;;5077405;28;20202;-65
2023/07/26 02:47:38;;;;;;;4.93;2.63;;;21.50;92.00;;;;;;5078634;28;20190;-65
2023/07/26 02:50:05;;;;;;;4.13;2.63;;;21.50;92.10;;;;;;5074290;28;20209;-63
2023/07/26 02:52:33;;;;;;;6.33;2.40;;;21.40;92.20;;;;;;5068794;28;20603;-64
2023/07/26 02:55:00;;;;;;;4.10;2.67;;;21.40;92.20;;;;;;5065927;28;20622;-64
2023/07/26 02:57:27;;;;;;;6.33;3.00;;;21.40;92.30;;;;;;5066735;28;20288;-64
2023/07/26 02:59:55;;;;;;;7.10;2.53;;;21.40;92.40;;;;;;5075855;28;20206;-64
2023/07/26 03:02:22;;;;;;;7.73;2.83;;;21.40;92.50;;;;;;5071547;28;20323;-64
2023/07/26 03:04:49;;;;;;;5.63;2.60;;;21.40;92.50;;;;;;5075931;28;20285;-64
2023/07/26 03:07:16;;;;;;;4.53;3.00;;;21.30;92.40;;;;;;5075988;28;20201;-64
2023/07/26 03:09:43;;;;;;;4.93;2.80;;;21.30;92.40;;;;;;5070456;28;20208;-64
2023/07/26 03:12:10;;;;;;;5.40;2.90;;;21.20;92.40;;;;;;5070652;28;20701;-64
2023/07/26 03:14:40;;;;;;;5.00;2.70;;;21.20;92.40;;;;;;5071738;28;20259;-64
2023/07/26 03:17:11;;;;;;;6.37;2.87;;;21.20;92.50;;;;;;5062593;28;20225;-64
2023/07/26 03:19:49;;;;;;;6.87;2.57;;;21.10;92.50;;;;;;5076829;28;20201;-65
2023/07/26 03:22:16;;;;;;;5.57;2.90;;;21.10;92.70;;;;;;5079811;28;20590;-65
2023/07/26 03:24:43;;;;;;;4.77;2.90;;;21.10;92.70;;;;;;5076119;28;20204;-64
2023/07/26 03:27:10;;;;;;;11.67;3.10;;;21.00;92.80;;;;;;5057976;28;20583;-66
2023/07/26 03:29:38;;;;;;;5.37;2.60;;;21.00;92.80;;;;;;5072750;28;20208;-65
2023/07/26 03:32:06;;;;;;;7.53;2.73;;;20.90;92.80;;;;;;5074605;28;20193;-64
2023/07/26 03:34:33;;;;;;;12.37;2.90;;;20.90;92.90;;;;;;5073577;28;20201;-64
2023/07/26 03:37:01;;;;;;;5.50;2.73;;;20.90;93.00;;;;;;5072739;28;20591;-64
2023/07/26 03:39:28;;;;;;;5.20;2.67;;;20.80;93.00;;;;;;5075540;28;20205;-64
2023/07/26 03:41:55;;;;;;;4.93;2.63;;;20.80;93.10;;;;;;5079265;28;20645;-64
2023/07/26 03:44:22;;;;;;;4.27;2.80;;;20.80;93.20;;;;;;5078590;28;20218;-64
2023/07/26 03:46:49;;;;;;;3.47;2.70;;;20.80;93.20;;;;;;5076294;28;20203;-65
2023/07/26 03:49:16;;;;;;;4.53;2.90;;;20.80;93.40;;;;;;5072784;28;20197;-64
2023/07/26 03:51:43;;;;;;;3.30;2.03;;;20.80;93.40;;;;;;5077178;28;20221;-64
2023/07/26 03:54:11;;;;;;;5.40;2.93;;;20.70;93.50;;;;;;5069759;28;20197;-64
2023/07/26 03:56:38;;;;;;;3.50;3.20;;;20.70;93.50;;;;;;5065464;28;20217;-64
2023/07/26 03:59:05;;;;;;;5.03;2.97;;;20.70;93.60;;;;;;5071802;28;20229;-64
2023/07/26 04:01:32;;;;;;;8.97;3.23;;;20.70;93.60;;;;;;5078755;28;20255;-64
2023/07/26 04:03:59;;;;;;;6.40;3.27;;;20.70;93.60;;;;;;5074957;28;20566;-64
2023/07/26 04:06:26;;;;;;;8.57;3.40;;;20.70;93.60;;;;;;5073850;28;20639;-64
2023/07/26 04:08:55;;;;;;;10.37;3.53;;;20.70;93.70;;;;;;5071562;28;20206;-64
2023/07/26 04:11:22;;;;;;;5.03;3.17;;;20.70;93.60;;;;;;5078942;28;20287;-64
2023/07/26 04:13:49;;;;;;;4.37;2.70;;;20.70;93.50;;;;;;5073523;28;20203;-66
2023/07/26 04:16:18;;;;;;;7.63;3.20;;;20.70;93.40;;;;;;5072097;28;20529;-64
2023/07/26 04:18:45;;;;;;;3.10;2.53;;;20.60;93.60;;;;;;5079919;28;20623;-64
2023/07/26 04:21:14;;;;;;;7.23;2.90;;;20.60;93.70;;;;;;5081798;28;20197;-64
2023/07/26 04:23:43;;;;;;;4.07;2.80;;;20.60;93.70;;;;;;5079920;28;20286;-65
2023/07/26 04:26:10;;;;;;;5.00;3.60;;;20.60;93.80;;;;;;5077965;28;20197;-65
2023/07/26 04:28:38;;;;;;;7.03;3.30;;;20.60;93.80;;;;;;5072670;28;20319;-64
2023/07/26 04:31:05;;;;;;;4.80;2.77;;;20.60;94.00;;;;;;5078841;28;20208;-64
2023/07/26 04:33:32;;;;;;;3.90;2.83;;;20.60;94.10;;;;;;5072566;28;20210;-64
2023/07/26 04:35:59;;;;;;;5.03;2.70;;;20.60;94.30;;;;;;5070593;28;20542;-65
2023/07/26 04:38:26;;;;;;;5.77;3.10;;;20.60;94.40;;;;;;5083553;28;20673;-65
2023/07/26 04:40:53;;;;;;;6.17;2.70;;;20.70;94.50;;;;;;5080458;28;20290;-64
2023/07/26 04:43:20;;;;;;;4.53;3.03;;;20.80;94.50;;;;;;5080589;28;20290;-64
2023/07/26 04:45:48;;;;;;;4.60;3.07;;;20.80;94.40;;;;;;5075083;28;20201;-64
2023/07/26 04:48:17;;;;;;;7.13;3.20;;;20.90;94.20;;;;;;5079435;28;20190;-65
2023/07/26 04:50:47;;;;;;;4.57;2.77;;;20.90;94.10;;;;;;5079669;28;20624;-64
2023/07/26 04:53:14;;;;;;;6.57;3.13;;;20.90;94.10;;;;;;5072725;28;20234;-64
2023/07/26 04:55:47;;;;;;;6.17;3.13;;;20.90;94.20;;;;;;5079872;28;20214;-64
2023/07/26 04:58:14;;;;;;;5.10;2.77;;;21.00;94.30;;;;;;5082769;28;20209;-64
2023/07/26 05:00:42;;;;;;;4.03;2.80;;;21.00;94.40;;;;;;5077712;28;20209;-64
2023/07/26 05:03:10;;;;;;;8.07;3.20;;;21.10;94.50;;;;;;5074639;28;20245;-64
2023/07/26 05:05:37;;;;;;;9.83;3.37;;;21.20;94.50;;;;;;5071041;28;20199;-64
2023/07/26 05:08:06;;;;;;;6.43;3.90;;;21.20;94.50;;;;;;5077436;28;20205;-64
2023/07/26 05:10:34;;;;;;;7.57;3.53;;;21.30;94.50;;;;;;5075625;28;20194;-64
2023/07/26 05:13:02;;;;;;;6.23;4.20;;;21.40;94.50;;;;;;5072077;28;20194;-64
2023/07/26 05:15:29;;;;;;;6.93;4.53;;;21.50;94.60;;;;;;5073601;28;20239;-66
2023/07/26 05:17:56;;;;;;;7.83;4.33;;;21.50;94.60;;;;;;5080530;28;20284;-64
2023/07/26 05:20:23;;;;;;;6.00;4.47;;;21.60;94.50;;;;;;5077757;28;20284;-64
2023/07/26 05:22:51;;;;;;;5.20;3.93;;;21.70;94.40;;;;;;5080505;28;20224;-64
2023/07/26 05:25:19;;;;;;;5.53;3.60;;;21.80;94.30;;;;;;5068609;28;20283;-65
2023/07/26 05:27:46;;;;;;;5.00;3.73;;;21.90;94.30;;;;;;5076635;28;20588;-63
2023/07/26 05:30:17;;;;;;;8.17;4.27;;;22.00;94.10;;;;;;5074655;28;20202;-64
2023/07/26 05:32:44;;;;;;;5.83;3.80;;;22.10;94.00;;;;;;5074285;28;20206;-64
2023/07/26 05:35:12;;;;;;;5.70;3.80;;;22.20;93.80;;;;;;5077238;28;20197;-64
2023/07/26 05:37:39;;;;;;;7.27;3.33;;;22.30;93.60;;;;;;5077304;28;20676;-65
2023/07/26 05:40:07;;;;;;;10.33;3.33;;;22.40;93.50;;;;;;5080866;28;20194;-66
2023/07/26 05:42:35;;;;;;;6.70;3.30;;;22.50;93.30;;;;;;5077363;28;20210;-64
2023/07/26 05:45:02;;;;;;;6.33;3.80;;;22.50;93.10;;;;;;5071804;28;20206;-64
2023/07/26 05:47:30;;;;;;;5.67;3.33;;;22.60;92.90;;;;;;5080419;28;20206;-64
2023/07/26 05:49:58;;;;;;;7.20;3.57;;;22.70;92.80;;;;;;5071849;28;20284;-64
2023/07/26 05:52:25;;;;;;;4.20;3.03;;;22.80;92.50;;;;;;5077364;28;20204;-64
2023/07/26 05:54:52;;;;;;;5.37;3.17;;;23.00;92.30;;;;;;5078819;28;20190;-64
2023/07/26 05:57:19;;;;;;;7.03;3.03;;;23.00;92.20;;;;;;5073812;28;20206;-64
2023/07/26 05:59:46;;;;;;;5.47;2.90;;;23.10;91.90;;;;;;5073999;28;20205;-64
2023/07/26 06:02:13;;;;;;;5.07;2.40;;;23.30;91.60;;;;;;5076781;28;20702;-63
2023/07/26 06:04:40;;;;;;;4.57;2.70;;;23.40;90.80;;;;;;5071374;28;20213;-63
2023/07/26 06:07:07;;;;;;;4.27;2.80;;;23.40;90.10;;;;;;5082380;28;20201;-64
2023/07/26 06:09:35;;;;;;;4.47;2.63;;;23.50;90.00;;;;;;5070991;28;20641;-63
2023/07/26 06:12:02;;;;;;;4.93;2.83;;;23.60;90.00;;;;;;5080847;28;20239;-64
2023/07/26 06:14:30;;;;;;;4.27;2.70;;;23.70;89.90;;;;;;5074837;28;20217;-64
2023/07/26 06:16:57;;;;;;;6.37;2.97;;;23.80;89.80;;;;;;5071433;28;20206;-64
2023/07/26 06:19:24;;;;;;;7.23;2.63;;;24.00;89.10;;;;;;5078262;28;20212;-64
2023/07/26 06:21:55;;;;;;;3.07;2.50;;;24.10;88.60;;;;;;5073266;28;20263;-63
2023/07/26 06:24:26;;;;;;;6.67;2.37;;;24.30;86.90;;;;;;5068698;28;20210;-66
2023/07/26 06:26:57;;;;;;;5.17;2.33;;;24.30;86.90;;;;;;5074691;28;20288;-64
2023/07/26 06:29:24;;;;;;;4.27;2.53;;;24.40;86.50;;;;;;5073718;28;20194;-64
2023/07/26 06:31:51;;;;;;;7.77;2.40;;;24.50;85.70;;;;;;5080624;28;20194;-64
2023/07/26 06:34:18;;;;;;;8.17;2.93;;;24.60;86.00;;;;;;5074238;28;20216;-64
2023/07/26 06:36:46;;;;;;;7.47;2.50;;;24.70;86.10;;;;;;5072149;28;20233;-65
2023/07/26 06:39:14;;;;;;;5.13;2.47;;;24.80;86.10;;;;;;5079246;28;20278;-64
2023/07/26 06:41:41;;;;;;;4.77;2.40;;;25.00;85.00;;;;;;5069568;28;20202;-64
2023/07/26 06:44:08;;;;;;;9.40;3.17;;;25.10;85.10;;;;;;5065537;28;20218;-64
2023/07/26 06:46:35;;;;;;;4.50;2.43;;;25.20;84.80;;;;;;5073412;28;20235;-64
2023/07/26 06:49:02;;;;;;;4.27;2.73;;;25.30;82.40;;;;;;5079127;28;20214;-64
2023/07/26 06:51:29;;;;;;;2.77;2.23;;;25.40;81.90;;;;;;5075031;28;20232;-65
2023/07/26 06:53:57;;;;;;;3.57;2.50;;;25.50;82.10;;;;;;5069360;28;20201;-66
2023/07/26 06:56:23;;;;;;;3.63;2.60;;;25.50;81.10;;;;;;5068840;28;20198;-65
2023/07/26 06:58:52;;;;;;;5.27;2.60;;;25.50;81.00;;;;;;5076058;28;20196;-64
2023/07/26 07:01:20;;;;;;;3.97;2.97;;;25.60;80.70;;;;;;5067732;28;20231;-64
2023/07/26 07:03:47;;;;;;;7.33;2.63;;;25.60;80.40;;;;;;5065548;28;20279;-65
2023/07/26 07:06:34;;;;;;;6.20;2.20;;;25.70;80.20;;;;;;5071625;28;20225;-64
2023/07/26 07:09:01;;;;;;;3.63;2.73;;;25.90;79.60;;;;;;5077390;28;20196;-64
2023/07/26 07:11:28;;;;;;;3.70;2.20;;;25.90;79.40;;;;;;5077917;28;20193;-64
2023/07/26 07:13:56;;;;;;;4.23;2.30;;;26.00;79.20;;;;;;5071654;28;20209;-65
2023/07/26 07:16:23;;;;;;;4.03;2.63;;;26.10;78.70;;;;;;5071934;28;20262;-64
2023/07/26 07:18:50;;;;;;;4.23;2.50;;;26.20;77.90;;;;;;5072604;28;20255;-64
2023/07/26 07:21:17;;;;;;;4.43;2.33;;;26.30;78.00;;;;;;5066852;28;20197;-65
2023/07/26 07:23:44;;;;;;;5.50;2.37;;;26.40;78.10;;;;;;5063042;28;20221;-65
2023/07/26 07:26:11;;;;;;;7.53;3.07;;;26.50;77.30;;;;;;5077784;28;20284;-67
2023/07/26 07:28:39;;;;;;;18.50;3.80;;;26.50;77.30;;;;;;5075028;28;20195;-64
2023/07/26 07:31:06;;;;;;;5.13;2.60;;;26.50;77.30;;;;;;5075102;28;20575;-64
2023/07/26 07:33:34;;;;;;;6.53;2.60;;;26.70;77.00;;;;;;5072962;28;20224;-64
2023/07/26 07:36:01;;;;;;;6.37;3.20;;;26.80;76.90;;;;;;5076423;28;20220;-64
2023/07/26 07:38:28;;;;;;;5.17;2.80;;;27.00;76.10;;;;;;5068421;28;20194;-64
2023/07/26 07:40:55;;;;;;;5.80;2.97;;;27.20;75.10;;;;;;5069469;28;20537;-63
2023/07/26 07:43:22;;;;;;;6.37;2.80;;;27.30;73.80;;;;;;5073952;28;20501;-64
2023/07/26 07:45:49;;;;;;;3.70;2.57;;;27.30;73.10;;;;;;5079333;28;20292;-64
2023/07/26 07:48:16;;;;;;;6.87;2.50;;;27.30;73.20;;;;;;5082373;28;20204;-64
2023/07/26 07:50:43;;;;;;;3.57;2.50;;;27.50;73.00;;;;;;5080547;28;20537;-64
2023/07/26 07:53:11;;;;;;;4.33;2.60;;;27.50;73.00;;;;;;5072847;28;20210;-65
2023/07/26 07:55:38;;;;;;;6.63;2.50;;;27.60;72.50;;;;;;5077947;28;20227;-64
2023/07/26 07:58:05;;;;;;;5.87;3.00;;;27.80;72.20;;;;;;5075719;28;20614;-63
2023/07/26 08:00:32;;;;;;;4.90;3.00;;;28.00;71.40;;;;;;5069526;28;20206;-64
2023/07/26 08:02:59;;;;;;;5.67;2.63;;;28.10;70.60;;;;;;5073897;28;20237;-68
2023/07/26 08:05:26;;;;;;;3.27;2.60;;;28.20;70.80;;;;;;5075383;28;20785;-64
2023/07/26 08:07:54;;;;;;;4.03;2.60;;;28.30;70.80;;;;;;5077107;28;20208;-65
2023/07/26 08:10:21;;;;;;;5.73;2.50;;;28.40;69.40;;;;;;5080328;28;20197;-65
2023/07/26 08:12:48;;;;;;;5.13;3.07;;;28.50;69.00;;;;;;5073780;28;20228;-65
2023/07/26 08:15:15;;;;;;;3.87;2.70;;;28.70;68.90;;;;;;5074584;28;20287;-65
2023/07/26 08:17:43;;;;;;;3.60;2.50;;;28.80;68.10;;;;;;5076498;28;20213;-63
2023/07/26 08:20:11;;;;;;;7.93;3.10;;;29.00;67.40;;;;;;5064705;28;20252;-63
2023/07/26 08:22:39;;;;;;;4.20;2.60;;;29.00;66.40;;;;;;5080744;28;20294;-65
2023/07/26 08:25:07;;;;;;;5.13;2.50;;;28.90;66.90;;;;;;5078947;28;20213;-64
2023/07/26 08:27:34;;;;;;;3.23;2.63;;;29.00;66.80;;;;;;5077271;28;20209;-64
2023/07/26 08:30:02;;;;;;;4.30;2.43;;;29.00;66.50;;;;;;5078988;28;20194;-63
2023/07/26 08:32:28;;;;;;;2.97;2.33;;;29.20;66.20;;;;;;5077043;28;20189;-63
2023/07/26 08:34:56;;;;;;;5.00;2.70;;;29.20;66.20;;;;;;5076374;28;20659;-65
2023/07/26 08:37:23;;;;;;;4.73;2.63;;;29.20;65.50;;;;;;5073587;28;20198;-65
2023/07/26 08:39:50;;;;;;;3.90;2.67;;;29.20;65.20;;;;;;5069571;28;20564;-63
2023/07/26 08:42:17;;;;;;;4.83;2.90;;;29.20;64.50;;;;;;5079755;28;20208;-64
2023/07/26 08:44:49;;;;;;;6.07;2.20;;;29.20;64.40;;;;;;5079854;28;20508;-64
2023/07/26 08:47:18;;;;;;;6.47;3.20;;;29.20;64.80;;;;;;5078518;28;20212;-64
2023/07/26 08:49:46;;;;;;;4.93;2.90;;;29.30;64.80;;;;;;5077416;28;20194;-64
2023/07/26 08:52:17;;;;;;;4.03;2.93;;;29.50;64.20;;;;;;5071953;28;20186;-66
2023/07/26 08:54:46;;;;;;;5.93;2.57;;;29.60;63.60;;;;;;5078211;28;20204;-64
2023/07/26 08:57:15;;;;;;;3.80;2.60;;;29.60;63.80;;;;;;5074760;28;20198;-65
2023/07/26 08:59:43;;;;;;;6.17;2.80;;;29.70;63.60;;;;;;5072503;28;20194;-67
2023/07/26 09:02:14;;;;;;;7.37;3.10;;;29.80;63.20;;;;;;5079895;28;20239;-64
2023/07/26 09:04:41;;;;;;;3.80;2.50;;;29.90;62.00;;;;;;5076521;28;20682;-64
2023/07/26 09:07:08;;;;;;;6.93;3.07;;;29.80;61.60;;;;;;5075204;28;20194;-65
2023/07/26 09:09:37;;;;;;;3.87;2.80;;;29.90;62.00;;;;;;5073336;28;20216;-64
2023/07/26 09:12:04;;;;;;;3.60;2.47;;;29.90;62.10;;;;;;5069593;28;20538;-64
2023/07/26 09:14:33;;;;;;;3.57;2.33;;;29.90;62.80;;;;;;5076173;28;20288;-63
2023/07/26 09:17:03;;;;;;;4.67;2.63;;;30.00;61.80;;;;;;5072207;28;20291;-71
2023/07/26 09:19:33;;;;;;;6.53;2.43;;;30.00;61.00;;;;;;5070760;28;20198;-64
2023/07/26 09:22:02;;;;;;;4.83;2.20;;;30.10;60.80;;;;;;5076082;28;20651;-64
2023/07/26 09:24:39;;;;;;;2.30;2.10;;;30.10;60.00;;;;;;5076636;28;20201;-65
2023/07/26 09:27:09;;;;;;;2.97;2.07;;;30.20;60.10;;;;;;5078689;28;20662;-64
2023/07/26 09:29:39;;;;;;;3.67;2.00;;;30.30;60.00;;;;;;5073869;28;20201;-68
2023/07/26 09:32:07;;;;;;;2.80;1.97;;;30.40;60.10;;;;;;5069541;28;20195;-64
2023/07/26 09:34:34;;;;;;;5.43;2.37;;;30.50;59.20;;;;;;5075777;28;20205;-64
2023/07/26 09:37:01;;;;;;;3.13;1.90;;;30.50;58.70;;;;;;5073665;28;20193;-65
2023/07/26 09:39:29;;;;;;;2.40;1.80;;;30.70;58.70;;;;;;5077668;28;20201;-64
2023/07/26 09:42:08;;;;;;;5.23;2.60;;;30.80;57.10;;;;;;5074171;28;20385;-64
2023/07/26 09:44:36;;;;;;;2.10;1.73;;;30.80;55.50;;;;;;5076703;28;20213;-64
2023/07/26 09:47:04;;;;;;;3.27;2.23;;;30.80;54.90;;;;;;5077611;28;20193;-64
2023/07/26 09:49:31;;;;;;;3.53;1.90;;;30.80;55.50;;;;;;5071637;28;20194;-64
2023/07/26 09:52:00;;;;;;;2.00;1.60;;;30.90;55.60;;;;;;5069395;28;20225;-64
2023/07/26 09:54:32;;;;;;;2.20;1.47;;;31.00;53.10;;;;;;5070123;28;20198;-63
2023/07/26 09:57:05;;;;;;;3.83;1.87;;;31.10;53.40;;;;;;5074684;28;20288;-64
2023/07/26 09:59:36;;;;;;;2.07;1.70;;;31.20;53.40;;;;;;5074102;28;20640;-66
2023/07/26 10:02:09;;;;;;;3.50;1.80;;;31.30;53.40;;;;;;5074440;28;20249;-65
2023/07/26 10:04:39;;;;;;;2.37;1.63;;;31.40;54.20;;;;;;5074121;28;20206;-64
2023/07/26 10:07:11;;;;;;;3.57;2.10;;;31.40;54.30;;;;;;5072949;28;20229;-63
2023/07/26 10:09:43;;;;;;;2.20;1.80;;;31.50;53.70;;;;;;5070902;28;20185;-64
2023/07/26 10:12:11;;;;;;;3.23;2.10;;;31.50;53.20;;;;;;5073549;28;20675;-64
2023/07/26 10:14:39;;;;;;;3.00;1.90;;;31.30;53.00;;;;;;5073545;28;20206;-64
2023/07/26 10:17:06;;;;;;;4.40;1.90;;;31.10;53.90;;;;;;5078428;28;20280;-66
2023/07/26 10:19:36;;;;;;;3.00;2.30;;;31.20;54.00;;;;;;5072575;28;20209;-64
2023/07/26 10:22:05;;;;;;;6.00;2.03;;;31.30;53.80;;;;;;5071783;28;20633;-64
2023/07/26 10:24:36;;;;;;;3.70;1.67;;;31.40;53.40;;;;;;5076917;28;20240;-65
2023/07/26 10:27:04;;;;;;;2.00;1.80;;;31.60;52.90;;;;;;5070860;28;20204;-65
2023/07/26 10:29:32;;;;;;;2.03;1.80;;;31.60;53.30;;;;;;5066578;28;20205;-64
2023/07/26 10:32:06;;;;;;;2.93;1.60;;;31.60;53.10;;;;;;5078880;28;20643;-65
2023/07/26 10:34:33;;;;;;;1.40;1.30;;;31.40;52.90;;;;;;5075673;28;20234;-64
2023/07/26 10:37:20;;;;;;;2.50;1.80;;;31.10;50.90;;;;;;5078932;28;20212;-64
2023/07/26 10:39:50;;;;;;;1.73;1.60;;;30.70;51.60;;;;;;5075542;28;20209;-64
2023/07/26 10:42:28;;;;;;;2.47;1.53;;;30.60;52.20;;;;;;5067405;28;20221;-64
2023/07/26 10:44:59;;;;;;;1.50;1.40;;;30.60;53.30;;;;;;5073895;28;20214;-63
2023/07/26 10:47:26;;;;;;;1.93;1.47;;;30.80;51.10;;;;;;5070063;28;20259;-64
2023/07/26 10:49:55;;;;;;;3.17;1.30;;;31.00;50.80;;;;;;5068429;28;20543;-67
2023/07/26 10:52:35;;;;;;;1.80;1.60;;;31.10;50.20;;;;;;5062714;28;20204;-65
2023/07/26 10:55:29;;;;;;;2.93;1.57;;;31.20;50.30;;;;;;5076471;28;20200;-64
2023/07/26 10:57:58;;;;;;;1.53;1.30;;;31.40;49.70;;;;;;5070460;28;20677;-64
2023/07/26 11:00:33;;;;;;;2.20;1.50;;;31.40;49.50;;;;;;5072393;28;20201;-64
2023/07/26 11:03:01;;;;;;;2.27;1.37;;;31.60;50.20;;;;;;5070219;28;20228;-64
2023/07/26 11:05:29;;;;;;;3.77;1.83;;;31.70;50.30;;;;;;5073832;28;20221;-65
2023/07/26 11:08:03;;;;;;;3.00;1.50;;;31.90;50.20;;;;;;5068787;28;20573;-65
2023/07/26 11:10:52;;;;;;;2.40;1.43;;;32.10;50.10;;;;;;5070029;28;20205;-66
2023/07/26 11:13:27;;;;;;;2.20;1.57;;;32.30;49.40;;;;;;5074825;28;20655;-65
2023/07/26 11:15:54;;;;;;;3.60;1.57;;;32.50;49.40;;;;;;5077529;28;20198;-64
2023/07/26 11:18:41;;;;;;;1.33;1.20;;;32.60;48.70;;;;;;5069692;28;20205;-63
2023/07/26 11:21:15;;;;;;;1.30;1.20;;;32.60;47.60;;;;;;5073893;28;20207;-64
2023/07/26 11:23:43;;;;;;;3.90;1.23;;;32.70;46.40;;;;;;5083125;28;20585;-65
2023/07/26 11:26:10;;;;;;;1.70;1.50;;;32.60;45.90;;;;;;5076001;28;20226;-63
2023/07/26 11:28:38;;;;;;;1.53;1.43;;;32.60;46.40;;;;;;5070736;28;20213;-64
2023/07/26 11:31:06;;;;;;;2.37;1.53;;;32.40;46.30;;;;;;5082161;28;20717;-65
2023/07/26 11:33:35;;;;;;;1.50;1.40;;;32.10;46.60;;;;;;5083333;28;20280;-65
2023/07/26 11:36:05;;;;;;;1.67;1.50;;;31.80;47.30;;;;;;5079830;28;20197;-64
2023/07/26 11:38:32;;;;;;;1.60;1.50;;;31.60;48.50;;;;;;5077849;28;20214;-64
2023/07/26 11:41:00;;;;;;;3.10;1.80;;;31.40;48.10;;;;;;5075559;28;20285;-64
2023/07/26 11:43:28;;;;;;;1.50;1.20;;;31.50;48.30;;;;;;5074628;28;20602;-64
2023/07/26 11:45:56;;;;;;;1.53;1.43;;;31.70;47.80;;;;;;5074463;28;20219;-64
2023/07/26 11:48:30;;;;;;;2.50;1.50;;;32.10;45.90;;;;;;5068144;28;20194;-65
2023/07/26 11:51:03;;;;;;;1.83;1.37;;;32.30;46.10;;;;;;5081841;28;20210;-65
2023/07/26 11:53:36;;;;;;;2.57;2.07;;;32.60;46.30;;;;;;5083455;28;20277;-64
2023/07/26 11:56:12;;;;;;;3.23;1.50;;;32.80;46.50;;;;;;5078704;28;20205;-64
2023/07/26 11:58:42;;;;;;;2.60;1.83;;;33.00;46.10;;;;;;5075419;28;20199;-66
2023/07/26 12:01:09;;;;;;;2.50;1.40;;;33.00;46.10;;;;;;5075040;28;20214;-63
2023/07/26 12:03:37;;;;;;;3.23;1.47;;;33.00;46.00;;;;;;5075295;28;20544;-64
2023/07/26 12:06:06;;;;;;;1.23;1.13;;;33.00;45.90;;;;;;5072773;28;20224;-64
2023/07/26 12:08:37;;;;;;;1.23;1.13;;;33.00;45.80;;;;;;5071505;28;20285;-64
2023/07/26 12:11:06;;;;;;;1.60;1.50;;;33.10;46.00;;;;;;5075205;28;20190;-63
2023/07/26 12:13:34;;;;;;;5.30;1.50;;;33.00;45.80;;;;;;5077774;28;20240;-63
2023/07/26 12:16:03;;;;;;;2.43;1.17;;;32.70;45.70;;;;;;5072972;28;20190;-67
2023/07/26 12:18:31;;;;;;;1.60;1.20;;;32.30;46.50;;;;;;5068799;28;20388;-64
2023/07/26 12:21:09;;;;;;;1.50;1.20;;;31.90;47.50;;;;;;5076242;28;20748;-64
2023/07/26 12:24:03;;;;;;;3.13;1.03;;;31.50;48.40;;;;;;5076633;28;20291;-64
2023/07/26 12:26:35;;;;;;;2.37;1.33;;;31.10;49.00;;;;;;5068697;28;20214;-65
2023/07/26 12:29:06;;;;;;;1.70;1.30;;;30.90;49.80;;;;;;5078151;28;20200;-63
2023/07/26 12:31:36;;;;;;;2.37;1.17;;;30.60;49.30;;;;;;5076964;28;20199;-63
2023/07/26 12:34:09;;;;;;;1.37;1.23;;;30.40;49.40;;;;;;5071956;28;20201;-64
2023/07/26 12:36:41;;;;;;;1.87;1.30;;;30.10;50.20;;;;;;5069893;28;20237;-65
2023/07/26 12:39:09;;;;;;;1.67;1.37;;;30.00;50.60;;;;;;5069336;28;20316;-64
2023/07/26 12:41:38;;;;;;;1.30;1.20;;;29.90;50.60;;;;;;5080785;28;20218;-63
2023/07/26 12:44:10;;;;;;;2.93;1.47;;;30.10;50.00;;;;;;5073410;28;20237;-63
2023/07/26 12:46:38;;;;;;;1.57;1.40;;;30.40;49.70;;;;;;5073105;28;20511;-63
2023/07/26 12:49:10;;;;;;;1.60;1.50;;;30.80;49.10;;;;;;5074924;28;20209;-63
2023/07/26 12:51:40;;;;;;;2.10;1.20;;;31.20;47.80;;;;;;5074564;28;20193;-63
2023/07/26 12:54:07;;;;;;;2.60;1.47;;;31.40;47.50;;;;;;5078788;28;20189;-64